sensor_id;sensor_type;location;lat;lon;timestamp;pressure;altitude;pressure_sealevel;temperature;humidity
27908;BME280;15249;48.092;11.484;2022-07-29T00:00:53;95257.42;;;20.26;63.64551
27908;BME280;15249;48.092;11.484;2022-07-29T00:01:53;95257.42;;;20.26;63.64551
27908;BME280;15249;48.092;11.484;2022-07-29T00:02:54;95257.42;;;20.26;63.64551
27908;BME280;15249;48.092;11.484;2022-07-29T00:03:54;95257.69;;;20.17;64.15234
27908;BME280;15249;48.092;11.484;2022-07-29T00:04:55;95257.69;;;20.17;64.15234
27908;BME280;15249;48.092;11.484;2022-07-29T00:05:55;95257.69;;;20.17;64.15234
27908;BME280;15249;48.092;11.484;2022-07-29T00:06:56;95257.69;;;20.17;64.15234
27908;BME280;15249;48.092;11.484;2022-07-29T00:07:56;95257.69;;;20.17;64.15234
27908;BME280;15249;48.092;11.484;2022-07-29T00:08:57;95257.69;;;20.17;64.15234
27908;BME280;15249;48.092;11.484;2022-07-29T00:09:57;95257.69;;;20.17;64.15234
27908;BME280;15249;48.092;11.484;2022-07-29T00:10:58;95257.69;;;20.17;64.15234
27908;BME280;15249;48.092;11.484;2022-07-29T00:12:00;95257.69;;;20.17;64.15234
27908;BME280;15249;48.092;11.484;2022-07-29T00:13:01;95257.69;;;20.17;64.15234
27908;BME280;15249;48.092;11.484;2022-07-29T00:14:02;95246.95;;;20.04;64.77246
27908;BME280;15249;48.092;11.484;2022-07-29T00:15:03;95246.95;;;20.04;64.77246
27908;BME280;15249;48.092;11.484;2022-07-29T00:16:04;95246.95;;;20.04;64.77246
27908;BME280;15249;48.092;11.484;2022-07-29T00:17:05;95246.95;;;20.04;64.77246
27908;BME280;15249;48.092;11.484;2022-07-29T00:18:05;95246.95;;;20.04;64.77246
27908;BME280;15249;48.092;11.484;2022-07-29T00:19:06;95246.95;;;20.04;64.77246
27908;BME280;15249;48.092;11.484;2022-07-29T00:20:08;95246.95;;;20.04;64.77246
27908;BME280;15249;48.092;11.484;2022-07-29T00:21:08;95246.95;;;20.04;64.77246
27908;BME280;15249;48.092;11.484;2022-07-29T00:22:09;95246.95;;;20.04;64.77246
27908;BME280;15249;48.092;11.484;2022-07-29T00:23:09;95246.95;;;20.04;64.77246
27908;BME280;15249;48.092;11.484;2022-07-29T00:24:10;95246.95;;;20.04;64.77246
27908;BME280;15249;48.092;11.484;2022-07-29T00:25:12;95243.22;;;20;65.39551
27908;BME280;15249;48.092;11.484;2022-07-29T00:26:12;95243.22;;;20;65.39551
27908;BME280;15249;48.092;11.484;2022-07-29T00:27:13;95243.22;;;20;65.39551
27908;BME280;15249;48.092;11.484;2022-07-29T00:28:13;95243.22;;;20;65.39551
27908;BME280;15249;48.092;11.484;2022-07-29T00:29:14;95243.22;;;20;65.39551
27908;BME280;15249;48.092;11.484;2022-07-29T00:30:15;95243.22;;;20;65.39551
27908;BME280;15249;48.092;11.484;2022-07-29T00:31:15;95243.22;;;20;65.39551
27908;BME280;15249;48.092;11.484;2022-07-29T00:32:15;95243.22;;;20;65.39551
27908;BME280;15249;48.092;11.484;2022-07-29T00:33:16;95243.22;;;20;65.39551
27908;BME280;15249;48.092;11.484;2022-07-29T00:38:28;95238.5;;;19.94;65.67285
27908;BME280;15249;48.092;11.484;2022-07-29T00:39:29;95238.5;;;19.94;65.67285
27908;BME280;15249;48.092;11.484;2022-07-29T00:40:29;95238.5;;;19.94;65.67285
27908;BME280;15249;48.092;11.484;2022-07-29T00:41:30;95238.5;;;19.94;65.67285
27908;BME280;15249;48.092;11.484;2022-07-29T00:42:30;95238.5;;;19.94;65.67285
27908;BME280;15249;48.092;11.484;2022-07-29T00:43:31;95238.5;;;19.94;65.67285
27908;BME280;15249;48.092;11.484;2022-07-29T00:44:36;95238.5;;;19.94;65.67285
27908;BME280;15249;48.092;11.484;2022-07-29T00:45:36;95238.5;;;19.94;65.67285
27908;BME280;15249;48.092;11.484;2022-07-29T00:46:37;95221.73;;;19.98;65.83203
27908;BME280;15249;48.092;11.484;2022-07-29T00:47:37;95221.73;;;19.98;65.83203
27908;BME280;15249;48.092;11.484;2022-07-29T00:48:38;95221.73;;;19.98;65.83203
27908;BME280;15249;48.092;11.484;2022-07-29T00:49:40;95221.73;;;19.98;65.83203
27908;BME280;15249;48.092;11.484;2022-07-29T00:50:41;95221.73;;;19.98;65.83203
27908;BME280;15249;48.092;11.484;2022-07-29T00:51:41;95221.73;;;19.98;65.83203
27908;BME280;15249;48.092;11.484;2022-07-29T00:52:42;95221.73;;;19.98;65.83203
27908;BME280;15249;48.092;11.484;2022-07-29T00:53:42;95221.73;;;19.98;65.83203
27908;BME280;15249;48.092;11.484;2022-07-29T00:54:43;95221.73;;;19.98;65.83203
27908;BME280;15249;48.092;11.484;2022-07-29T00:55:44;95221.73;;;19.98;65.83203
27908;BME280;15249;48.092;11.484;2022-07-29T00:56:45;95221.73;;;19.98;65.83203
27908;BME280;15249;48.092;11.484;2022-07-29T00:57:45;95199.22;;;19.94;65.95898
27908;BME280;15249;48.092;11.484;2022-07-29T00:58:46;95199.22;;;19.94;65.95898
27908;BME280;15249;48.092;11.484;2022-07-29T00:59:48;95199.22;;;19.94;65.95898
27908;BME280;15249;48.092;11.484;2022-07-29T01:00:49;95199.22;;;19.94;65.95898
27908;BME280;15249;48.092;11.484;2022-07-29T01:01:50;95199.22;;;19.94;65.95898
27908;BME280;15249;48.092;11.484;2022-07-29T01:02:51;95199.22;;;19.94;65.95898
27908;BME280;15249;48.092;11.484;2022-07-29T01:03:51;95199.22;;;19.94;65.95898
27908;BME280;15249;48.092;11.484;2022-07-29T01:04:52;95199.22;;;19.94;65.95898
27908;BME280;15249;48.092;11.484;2022-07-29T01:05:54;95199.22;;;19.94;65.95898
27908;BME280;15249;48.092;11.484;2022-07-29T01:06:55;95199.22;;;19.94;65.95898
27908;BME280;15249;48.092;11.484;2022-07-29T01:07:57;95190.59;;;19.99;65.66992
27908;BME280;15249;48.092;11.484;2022-07-29T01:08:58;95190.59;;;19.99;65.66992
27908;BME280;15249;48.092;11.484;2022-07-29T01:10:00;95190.59;;;19.99;65.66992
27908;BME280;15249;48.092;11.484;2022-07-29T01:11:02;95190.59;;;19.99;65.66992
27908;BME280;15249;48.092;11.484;2022-07-29T01:12:04;95190.59;;;19.99;65.66992
27908;BME280;15249;48.092;11.484;2022-07-29T01:13:05;95190.59;;;19.99;65.66992
27908;BME280;15249;48.092;11.484;2022-07-29T01:14:07;95190.59;;;19.99;65.66992
27908;BME280;15249;48.092;11.484;2022-07-29T01:15:09;95190.59;;;19.99;65.66992
27908;BME280;15249;48.092;11.484;2022-07-29T01:16:14;95190.59;;;19.99;65.66992
27908;BME280;15249;48.092;11.484;2022-07-29T01:17:20;95190.59;;;19.99;65.66992
27908;BME280;15249;48.092;11.484;2022-07-29T01:18:27;95195.03;;;19.99;65.42773
27908;BME280;15249;48.092;11.484;2022-07-29T01:19:45;95195.03;;;19.99;65.42773
27908;BME280;15249;48.092;11.484;2022-07-29T01:21:03;95195.03;;;19.99;65.42773
27908;BME280;15249;48.092;11.484;2022-07-29T01:22:25;95195.03;;;19.99;65.42773
27908;BME280;15249;48.092;11.484;2022-07-29T01:23:43;95195.03;;;19.99;65.42773
27908;BME280;15249;48.092;11.484;2022-07-29T01:25:03;95195.03;;;19.99;65.42773
27908;BME280;15249;48.092;11.484;2022-07-29T01:26:27;95195.03;;;19.99;65.42773
27908;BME280;15249;48.092;11.484;2022-07-29T01:27:38;95195.03;;;19.99;65.42773
27908;BME280;15249;48.092;11.484;2022-07-29T01:28:49;95195.03;;;19.99;65.42773
27908;BME280;15249;48.092;11.484;2022-07-29T01:29:55;95190.74;;;20.04;65.35742
27908;BME280;15249;48.092;11.484;2022-07-29T01:30:57;95190.74;;;20.04;65.35742
27908;BME280;15249;48.092;11.484;2022-07-29T01:32:03;95190.74;;;20.04;65.35742
27908;BME280;15249;48.092;11.484;2022-07-29T01:33:08;95190.74;;;20.04;65.35742
27908;BME280;15249;48.092;11.484;2022-07-29T01:34:13;95190.74;;;20.04;65.35742
27908;BME280;15249;48.092;11.484;2022-07-29T01:35:21;95190.74;;;20.04;65.35742
27908;BME280;15249;48.092;11.484;2022-07-29T01:36:28;95190.74;;;20.04;65.35742
27908;BME280;15249;48.092;11.484;2022-07-29T01:37:37;95190.74;;;20.04;65.35742
27908;BME280;15249;48.092;11.484;2022-07-29T01:38:41;95190.74;;;20.04;65.35742
27908;BME280;15249;48.092;11.484;2022-07-29T01:39:45;95175.73;;;19.95;65.42188
27908;BME280;15249;48.092;11.484;2022-07-29T01:40:49;95175.73;;;19.95;65.42188
27908;BME280;15249;48.092;11.484;2022-07-29T01:42:01;95175.73;;;19.95;65.42188
27908;BME280;15249;48.092;11.484;2022-07-29T01:43:11;95175.73;;;19.95;65.42188
27908;BME280;15249;48.092;11.484;2022-07-29T01:44:16;95175.73;;;19.95;65.42188
27908;BME280;15249;48.092;11.484;2022-07-29T01:45:21;95175.73;;;19.95;65.42188
27908;BME280;15249;48.092;11.484;2022-07-29T01:46:27;95175.73;;;19.95;65.42188
27908;BME280;15249;48.092;11.484;2022-07-29T01:47:35;95175.73;;;19.95;65.42188
27908;BME280;15249;48.092;11.484;2022-07-29T01:48:40;95175.73;;;19.95;65.42188
27908;BME280;15249;48.092;11.484;2022-07-29T01:49:46;95175.73;;;19.95;65.42188
27908;BME280;15249;48.092;11.484;2022-07-29T01:50:50;95180.55;;;19.93;65.60547
27908;BME280;15249;48.092;11.484;2022-07-29T01:51:54;95180.55;;;19.93;65.60547
27908;BME280;15249;48.092;11.484;2022-07-29T01:52:59;95180.55;;;19.93;65.60547
27908;BME280;15249;48.092;11.484;2022-07-29T01:54:04;95180.55;;;19.93;65.60547
27908;BME280;15249;48.092;11.484;2022-07-29T01:55:11;95180.55;;;19.93;65.60547
27908;BME280;15249;48.092;11.484;2022-07-29T01:56:13;95180.55;;;19.93;65.60547
27908;BME280;15249;48.092;11.484;2022-07-29T01:57:16;95180.55;;;19.93;65.60547
27908;BME280;15249;48.092;11.484;2022-07-29T01:58:19;95180.55;;;19.93;65.60547
27908;BME280;15249;48.092;11.484;2022-07-29T01:59:21;95180.55;;;19.93;65.60547
27908;BME280;15249;48.092;11.484;2022-07-29T02:00:22;95180.55;;;19.93;65.60547
27908;BME280;15249;48.092;11.484;2022-07-29T02:01:24;95175.63;;;19.81;65.89746
27908;BME280;15249;48.092;11.484;2022-07-29T02:02:26;95175.63;;;19.81;65.89746
27908;BME280;15249;48.092;11.484;2022-07-29T02:03:28;95175.63;;;19.81;65.89746
27908;BME280;15249;48.092;11.484;2022-07-29T02:04:32;95175.63;;;19.81;65.89746
27908;BME280;15249;48.092;11.484;2022-07-29T02:05:35;95175.63;;;19.81;65.89746
27908;BME280;15249;48.092;11.484;2022-07-29T02:06:37;95175.63;;;19.81;65.89746
27908;BME280;15249;48.092;11.484;2022-07-29T02:07:40;95175.63;;;19.81;65.89746
27908;BME280;15249;48.092;11.484;2022-07-29T02:08:42;95175.63;;;19.81;65.89746
27908;BME280;15249;48.092;11.484;2022-07-29T02:09:45;95175.63;;;19.81;65.89746
27908;BME280;15249;48.092;11.484;2022-07-29T02:10:48;95175.63;;;19.81;65.89746
27908;BME280;15249;48.092;11.484;2022-07-29T02:11:52;95162.34;;;19.75;66.19629
27908;BME280;15249;48.092;11.484;2022-07-29T02:12:54;95162.34;;;19.75;66.19629
27908;BME280;15249;48.092;11.484;2022-07-29T02:13:56;95162.34;;;19.75;66.19629
27908;BME280;15249;48.092;11.484;2022-07-29T02:15:00;95162.34;;;19.75;66.19629
27908;BME280;15249;48.092;11.484;2022-07-29T02:16:03;95162.34;;;19.75;66.19629
27908;BME280;15249;48.092;11.484;2022-07-29T02:17:06;95162.34;;;19.75;66.19629
27908;BME280;15249;48.092;11.484;2022-07-29T02:18:09;95162.34;;;19.75;66.19629
27908;BME280;15249;48.092;11.484;2022-07-29T02:19:12;95162.34;;;19.75;66.19629
27908;BME280;15249;48.092;11.484;2022-07-29T02:20:15;95162.34;;;19.75;66.19629
27908;BME280;15249;48.092;11.484;2022-07-29T02:21:21;95162.34;;;19.75;66.19629
27908;BME280;15249;48.092;11.484;2022-07-29T02:22:24;95164.39;;;19.59;66.51172
27908;BME280;15249;48.092;11.484;2022-07-29T02:23:27;95164.39;;;19.59;66.51172
27908;BME280;15249;48.092;11.484;2022-07-29T02:24:29;95164.39;;;19.59;66.51172
27908;BME280;15249;48.092;11.484;2022-07-29T02:25:31;95164.39;;;19.59;66.51172
27908;BME280;15249;48.092;11.484;2022-07-29T02:26:32;95164.39;;;19.59;66.51172
27908;BME280;15249;48.092;11.484;2022-07-29T02:27:34;95164.39;;;19.59;66.51172
27908;BME280;15249;48.092;11.484;2022-07-29T02:28:35;95164.39;;;19.59;66.51172
27908;BME280;15249;48.092;11.484;2022-07-29T02:29:37;95164.39;;;19.59;66.51172
27908;BME280;15249;48.092;11.484;2022-07-29T02:30:40;95164.39;;;19.59;66.51172
27908;BME280;15249;48.092;11.484;2022-07-29T02:31:44;95164.39;;;19.59;66.51172
27908;BME280;15249;48.092;11.484;2022-07-29T02:32:46;95164.39;;;19.59;66.51172
27908;BME280;15249;48.092;11.484;2022-07-29T02:33:48;95144.3;;;19.41;66.84961
27908;BME280;15249;48.092;11.484;2022-07-29T02:34:51;95144.3;;;19.41;66.84961
27908;BME280;15249;48.092;11.484;2022-07-29T02:35:52;95144.3;;;19.41;66.84961
27908;BME280;15249;48.092;11.484;2022-07-29T02:36:55;95144.3;;;19.41;66.84961
27908;BME280;15249;48.092;11.484;2022-07-29T02:39:02;95144.3;;;19.41;66.84961
27908;BME280;15249;48.092;11.484;2022-07-29T02:40:07;95144.3;;;19.41;66.84961
27908;BME280;15249;48.092;11.484;2022-07-29T02:41:11;95144.3;;;19.41;66.84961
27908;BME280;15249;48.092;11.484;2022-07-29T02:42:15;95144.3;;;19.41;66.84961
27908;BME280;15249;48.092;11.484;2022-07-29T02:43:17;95144.3;;;19.41;66.84961
27908;BME280;15249;48.092;11.484;2022-07-29T02:44:24;95144.3;;;19.41;66.84961
27908;BME280;15249;48.092;11.484;2022-07-29T02:45:25;95144.3;;;19.41;66.84961
27908;BME280;15249;48.092;11.484;2022-07-29T02:46:30;95144.3;;;19.41;66.84961
27908;BME280;15249;48.092;11.484;2022-07-29T02:47:35;95144.3;;;19.41;66.84961
27908;BME280;15249;48.092;11.484;2022-07-29T02:48:39;95144.3;;;19.41;66.84961
27908;BME280;15249;48.092;11.484;2022-07-29T02:49:48;95144.3;;;19.41;66.84961
27908;BME280;15249;48.092;11.484;2022-07-29T02:50:57;95144.3;;;19.41;66.84961
27908;BME280;15249;48.092;11.484;2022-07-29T02:52:03;95144.3;;;19.41;66.84961
27908;BME280;15249;48.092;11.484;2022-07-29T02:53:09;95144.3;;;19.41;66.84961
27908;BME280;15249;48.092;11.484;2022-07-29T02:54:23;95144.3;;;19.41;66.84961
27908;BME280;15249;48.092;11.484;2022-07-29T02:55:30;95137.15999999999;;;18.81;67.95605
27908;BME280;15249;48.092;11.484;2022-07-29T02:56:35;95137.15999999999;;;18.81;67.95605
27908;BME280;15249;48.092;11.484;2022-07-29T02:57:43;95137.15999999999;;;18.81;67.95605
27908;BME280;15249;48.092;11.484;2022-07-29T02:58:48;95137.15999999999;;;18.81;67.95605
27908;BME280;15249;48.092;11.484;2022-07-29T02:59:51;95137.15999999999;;;18.81;67.95605
27908;BME280;15249;48.092;11.484;2022-07-29T03:00:53;95137.15999999999;;;18.81;67.95605
27908;BME280;15249;48.092;11.484;2022-07-29T03:01:55;95137.15999999999;;;18.81;67.95605
27908;BME280;15249;48.092;11.484;2022-07-29T03:02:59;95137.15999999999;;;18.81;67.95605
27908;BME280;15249;48.092;11.484;2022-07-29T03:04:03;95137.15999999999;;;18.81;67.95605
27908;BME280;15249;48.092;11.484;2022-07-29T03:05:06;95137.15999999999;;;18.81;67.95605
27908;BME280;15249;48.092;11.484;2022-07-29T03:06:08;95134.42;;;18.43;68.63379
27908;BME280;15249;48.092;11.484;2022-07-29T03:07:11;95134.42;;;18.43;68.63379
27908;BME280;15249;48.092;11.484;2022-07-29T03:08:14;95134.42;;;18.43;68.63379
27908;BME280;15249;48.092;11.484;2022-07-29T03:09:16;95134.42;;;18.43;68.63379
27908;BME280;15249;48.092;11.484;2022-07-29T03:10:18;95134.42;;;18.43;68.63379
27908;BME280;15249;48.092;11.484;2022-07-29T03:11:19;95134.42;;;18.43;68.63379
27908;BME280;15249;48.092;11.484;2022-07-29T03:12:20;95134.42;;;18.43;68.63379
27908;BME280;15249;48.092;11.484;2022-07-29T03:13:21;95134.42;;;18.43;68.63379
27908;BME280;15249;48.092;11.484;2022-07-29T03:14:23;95134.42;;;18.43;68.63379
27908;BME280;15249;48.092;11.484;2022-07-29T03:15:25;95134.42;;;18.43;68.63379
27908;BME280;15249;48.092;11.484;2022-07-29T03:16:26;95134.42;;;18.43;68.63379
27908;BME280;15249;48.092;11.484;2022-07-29T03:17:26;95134.42;;;18.43;68.63379
27908;BME280;15249;48.092;11.484;2022-07-29T03:18:27;95134.42;;;18.43;68.63379
27908;BME280;15249;48.092;11.484;2022-07-29T03:19:29;95134.42;;;18.43;68.63379
27908;BME280;15249;48.092;11.484;2022-07-29T03:20:29;95134.42;;;18.43;68.63379
27908;BME280;15249;48.092;11.484;2022-07-29T03:21:30;95134.42;;;18.43;68.63379
27908;BME280;15249;48.092;11.484;2022-07-29T03:22:30;95134.42;;;18.43;68.63379
27908;BME280;15249;48.092;11.484;2022-07-29T03:23:31;95134.42;;;18.43;68.63379
27908;BME280;15249;48.092;11.484;2022-07-29T03:24:33;95134.42;;;18.43;68.63379
27908;BME280;15249;48.092;11.484;2022-07-29T03:25:34;95134.42;;;18.43;68.63379
27908;BME280;15249;48.092;11.484;2022-07-29T03:26:35;95134.42;;;18.43;68.63379
27908;BME280;15249;48.092;11.484;2022-07-29T03:27:35;95132.56;;;17.87;69.77637
27908;BME280;15249;48.092;11.484;2022-07-29T03:28:36;95132.56;;;17.87;69.77637
27908;BME280;15249;48.092;11.484;2022-07-29T03:29:36;95132.56;;;17.87;69.77637
27908;BME280;15249;48.092;11.484;2022-07-29T03:30:37;95132.56;;;17.87;69.77637
27908;BME280;15249;48.092;11.484;2022-07-29T03:31:37;95132.56;;;17.87;69.77637
27908;BME280;15249;48.092;11.484;2022-07-29T03:32:39;95132.56;;;17.87;69.77637
27908;BME280;15249;48.092;11.484;2022-07-29T03:33:40;95132.56;;;17.87;69.77637
27908;BME280;15249;48.092;11.484;2022-07-29T03:34:40;95132.56;;;17.87;69.77637
27908;BME280;15249;48.092;11.484;2022-07-29T03:35:41;95132.56;;;17.87;69.77637
27908;BME280;15249;48.092;11.484;2022-07-29T03:36:42;95132.56;;;17.87;69.77637
27908;BME280;15249;48.092;11.484;2022-07-29T03:37:42;95138.9;;;17.68;70.25
27908;BME280;15249;48.092;11.484;2022-07-29T03:38:44;95138.9;;;17.68;70.25
27908;BME280;15249;48.092;11.484;2022-07-29T03:39:47;95138.9;;;17.68;70.25
27908;BME280;15249;48.092;11.484;2022-07-29T03:40:53;95138.9;;;17.68;70.25
27908;BME280;15249;48.092;11.484;2022-07-29T03:41:55;95138.9;;;17.68;70.25
27908;BME280;15249;48.092;11.484;2022-07-29T03:42:58;95138.9;;;17.68;70.25
27908;BME280;15249;48.092;11.484;2022-07-29T03:44:00;95138.9;;;17.68;70.25
27908;BME280;15249;48.092;11.484;2022-07-29T03:45:06;95138.9;;;17.68;70.25
27908;BME280;15249;48.092;11.484;2022-07-29T03:46:09;95138.9;;;17.68;70.25
27908;BME280;15249;48.092;11.484;2022-07-29T03:47:11;95138.9;;;17.68;70.25
27908;BME280;15249;48.092;11.484;2022-07-29T03:48:16;95133.56;;;17.5;70.7793
27908;BME280;15249;48.092;11.484;2022-07-29T03:49:19;95133.56;;;17.5;70.7793
27908;BME280;15249;48.092;11.484;2022-07-29T03:50:21;95133.56;;;17.5;70.7793
27908;BME280;15249;48.092;11.484;2022-07-29T03:51:22;95133.56;;;17.5;70.7793
27908;BME280;15249;48.092;11.484;2022-07-29T03:52:22;95133.56;;;17.5;70.7793
27908;BME280;15249;48.092;11.484;2022-07-29T03:53:23;95133.56;;;17.5;70.7793
27908;BME280;15249;48.092;11.484;2022-07-29T03:54:24;95133.56;;;17.5;70.7793
27908;BME280;15249;48.092;11.484;2022-07-29T03:55:25;95133.56;;;17.5;70.7793
27908;BME280;15249;48.092;11.484;2022-07-29T03:56:27;95133.56;;;17.5;70.7793
27908;BME280;15249;48.092;11.484;2022-07-29T03:57:28;95133.56;;;17.5;70.7793
27908;BME280;15249;48.092;11.484;2022-07-29T03:58:31;95133.56;;;17.5;70.7793
27908;BME280;15249;48.092;11.484;2022-07-29T03:59:33;95141.85;;;17.51;71.13086
27908;BME280;15249;48.092;11.484;2022-07-29T04:00:35;95141.85;;;17.51;71.13086
27908;BME280;15249;48.092;11.484;2022-07-29T04:01:37;95141.85;;;17.51;71.13086
27908;BME280;15249;48.092;11.484;2022-07-29T04:02:38;95141.85;;;17.51;71.13086
27908;BME280;15249;48.092;11.484;2022-07-29T04:03:39;95141.85;;;17.51;71.13086
27908;BME280;15249;48.092;11.484;2022-07-29T04:04:39;95141.85;;;17.51;71.13086
27908;BME280;15249;48.092;11.484;2022-07-29T04:05:40;95141.85;;;17.51;71.13086
27908;BME280;15249;48.092;11.484;2022-07-29T04:06:42;95141.85;;;17.51;71.13086
27908;BME280;15249;48.092;11.484;2022-07-29T04:07:43;95141.85;;;17.51;71.13086
27908;BME280;15249;48.092;11.484;2022-07-29T04:08:44;95141.85;;;17.51;71.13086
27908;BME280;15249;48.092;11.484;2022-07-29T04:09:45;95132.0;;;17.54;71.29883
27908;BME280;15249;48.092;11.484;2022-07-29T04:10:45;95132.0;;;17.54;71.29883
27908;BME280;15249;48.092;11.484;2022-07-29T04:11:46;95132.0;;;17.54;71.29883
27908;BME280;15249;48.092;11.484;2022-07-29T04:12:46;95132.0;;;17.54;71.29883
27908;BME280;15249;48.092;11.484;2022-07-29T04:13:47;95132.0;;;17.54;71.29883
27908;BME280;15249;48.092;11.484;2022-07-29T04:14:47;95132.0;;;17.54;71.29883
27908;BME280;15249;48.092;11.484;2022-07-29T04:15:48;95132.0;;;17.54;71.29883
27908;BME280;15249;48.092;11.484;2022-07-29T04:16:48;95132.0;;;17.54;71.29883
27908;BME280;15249;48.092;11.484;2022-07-29T04:17:49;95132.0;;;17.54;71.29883
27908;BME280;15249;48.092;11.484;2022-07-29T04:18:49;95132.0;;;17.54;71.29883
27908;BME280;15249;48.092;11.484;2022-07-29T04:19:49;95132.0;;;17.54;71.29883
27908;BME280;15249;48.092;11.484;2022-07-29T04:20:50;95136.92;;;17.77;71.29297
27908;BME280;15249;48.092;11.484;2022-07-29T04:21:51;95136.92;;;17.77;71.29297
27908;BME280;15249;48.092;11.484;2022-07-29T04:22:51;95136.92;;;17.77;71.29297
27908;BME280;15249;48.092;11.484;2022-07-29T04:23:52;95136.92;;;17.77;71.29297
27908;BME280;15249;48.092;11.484;2022-07-29T04:24:52;95136.92;;;17.77;71.29297
27908;BME280;15249;48.092;11.484;2022-07-29T04:25:53;95136.92;;;17.77;71.29297
27908;BME280;15249;48.092;11.484;2022-07-29T04:26:54;95136.92;;;17.77;71.29297
27908;BME280;15249;48.092;11.484;2022-07-29T04:28:02;95136.92;;;17.77;71.29297
27908;BME280;15249;48.092;11.484;2022-07-29T04:29:02;95136.92;;;17.77;71.29297
27908;BME280;15249;48.092;11.484;2022-07-29T04:30:04;95136.92;;;17.77;71.29297
27908;BME280;15249;48.092;11.484;2022-07-29T04:31:04;95158.51;;;18.12;71.1748
27908;BME280;15249;48.092;11.484;2022-07-29T04:32:05;95158.51;;;18.12;71.1748
27908;BME280;15249;48.092;11.484;2022-07-29T04:33:07;95158.51;;;18.12;71.1748
27908;BME280;15249;48.092;11.484;2022-07-29T04:34:08;95158.51;;;18.12;71.1748
27908;BME280;15249;48.092;11.484;2022-07-29T04:35:08;95158.51;;;18.12;71.1748
27908;BME280;15249;48.092;11.484;2022-07-29T04:36:11;95158.51;;;18.12;71.1748
27908;BME280;15249;48.092;11.484;2022-07-29T04:37:11;95158.51;;;18.12;71.1748
27908;BME280;15249;48.092;11.484;2022-07-29T04:38:11;95158.51;;;18.12;71.1748
27908;BME280;15249;48.092;11.484;2022-07-29T04:39:12;95158.51;;;18.12;71.1748
27908;BME280;15249;48.092;11.484;2022-07-29T04:40:13;95158.51;;;18.12;71.1748
27908;BME280;15249;48.092;11.484;2022-07-29T04:41:14;95158.51;;;18.12;71.1748
27908;BME280;15249;48.092;11.484;2022-07-29T04:42:14;95164.42;;;18.55;71.00098
27908;BME280;15249;48.092;11.484;2022-07-29T04:43:15;95164.42;;;18.55;71.00098
27908;BME280;15249;48.092;11.484;2022-07-29T04:44:15;95164.42;;;18.55;71.00098
27908;BME280;15249;48.092;11.484;2022-07-29T04:45:16;95164.42;;;18.55;71.00098
27908;BME280;15249;48.092;11.484;2022-07-29T04:46:17;95164.42;;;18.55;71.00098
27908;BME280;15249;48.092;11.484;2022-07-29T04:47:18;95164.42;;;18.55;71.00098
27908;BME280;15249;48.092;11.484;2022-07-29T04:48:18;95164.42;;;18.55;71.00098
27908;BME280;15249;48.092;11.484;2022-07-29T04:49:19;95164.42;;;18.55;71.00098
27908;BME280;15249;48.092;11.484;2022-07-29T04:50:19;95164.42;;;18.55;71.00098
27908;BME280;15249;48.092;11.484;2022-07-29T04:51:20;95164.42;;;18.55;71.00098
27908;BME280;15249;48.092;11.484;2022-07-29T04:52:20;95179.86;;;18.79;70.84277
27908;BME280;15249;48.092;11.484;2022-07-29T04:53:21;95179.86;;;18.79;70.84277
27908;BME280;15249;48.092;11.484;2022-07-29T04:54:21;95179.86;;;18.79;70.84277
27908;BME280;15249;48.092;11.484;2022-07-29T04:55:22;95179.86;;;18.79;70.84277
27908;BME280;15249;48.092;11.484;2022-07-29T04:56:22;95179.86;;;18.79;70.84277
27908;BME280;15249;48.092;11.484;2022-07-29T04:57:23;95179.86;;;18.79;70.84277
27908;BME280;15249;48.092;11.484;2022-07-29T04:58:24;95179.86;;;18.79;70.84277
27908;BME280;15249;48.092;11.484;2022-07-29T04:59:27;95179.86;;;18.79;70.84277
27908;BME280;15249;48.092;11.484;2022-07-29T05:00:27;95179.86;;;18.79;70.84277
27908;BME280;15249;48.092;11.484;2022-07-29T05:01:28;95179.86;;;18.79;70.84277
27908;BME280;15249;48.092;11.484;2022-07-29T05:02:28;95179.86;;;18.79;70.84277
27908;BME280;15249;48.092;11.484;2022-07-29T05:03:29;95179.86;;;18.79;70.84277
27908;BME280;15249;48.092;11.484;2022-07-29T05:04:30;95179.86;;;18.79;70.84277
27908;BME280;15249;48.092;11.484;2022-07-29T05:05:30;95179.86;;;18.79;70.84277
27908;BME280;15249;48.092;11.484;2022-07-29T05:06:31;95179.86;;;18.79;70.84277
27908;BME280;15249;48.092;11.484;2022-07-29T05:07:31;95179.86;;;18.79;70.84277
27908;BME280;15249;48.092;11.484;2022-07-29T05:08:32;95179.86;;;18.79;70.84277
27908;BME280;15249;48.092;11.484;2022-07-29T05:09:32;95179.86;;;18.79;70.84277
27908;BME280;15249;48.092;11.484;2022-07-29T05:10:38;95179.86;;;18.79;70.84277
27908;BME280;15249;48.092;11.484;2022-07-29T05:11:38;95179.86;;;18.79;70.84277
27908;BME280;15249;48.092;11.484;2022-07-29T05:12:38;95179.86;;;18.79;70.84277
27908;BME280;15249;48.092;11.484;2022-07-29T05:13:39;95197.02;;;18.78;71.11426
27908;BME280;15249;48.092;11.484;2022-07-29T05:14:39;95197.02;;;18.78;71.11426
27908;BME280;15249;48.092;11.484;2022-07-29T05:15:40;95197.02;;;18.78;71.11426
27908;BME280;15249;48.092;11.484;2022-07-29T05:16:41;95197.02;;;18.78;71.11426
27908;BME280;15249;48.092;11.484;2022-07-29T05:17:42;95197.02;;;18.78;71.11426
27908;BME280;15249;48.092;11.484;2022-07-29T05:18:42;95197.02;;;18.78;71.11426
27908;BME280;15249;48.092;11.484;2022-07-29T05:19:43;95197.02;;;18.78;71.11426
27908;BME280;15249;48.092;11.484;2022-07-29T05:20:43;95197.02;;;18.78;71.11426